createdAt,value
2023-02-25T00:01:36.236Z,94.60
2023-02-25T00:04:02.967Z,94.50
2023-02-25T00:06:29.628Z,94.70
2023-02-25T00:08:56.390Z,94.70
2023-02-25T00:11:25.511Z,94.30
2023-02-25T00:13:52.365Z,94.40
2023-02-25T00:16:20.942Z,94.30
2023-02-25T00:18:48.754Z,94.60
2023-02-25T00:21:16.773Z,94.30
2023-02-25T00:23:48.154Z,94.50
2023-02-25T00:26:16.990Z,94.60
2023-02-25T00:28:44.612Z,93.90
2023-02-25T00:31:15.833Z,92.90
2023-02-25T00:33:42.599Z,92.70
2023-02-25T00:36:14.565Z,92.90
2023-02-25T00:38:41.325Z,93.00
2023-02-25T00:41:11.721Z,92.50
2023-02-25T00:43:40.306Z,92.50
2023-02-25T00:46:07.038Z,92.20
2023-02-25T00:48:33.833Z,91.60
2023-02-25T00:51:08.879Z,92.00
2023-02-25T00:53:35.854Z,91.70
2023-02-25T00:56:02.630Z,91.50
2023-02-25T00:58:29.319Z,91.40
2023-02-25T01:00:56.267Z,91.30
2023-02-25T01:03:23.245Z,92.50
2023-02-25T01:05:50.888Z,92.50
2023-02-25T01:08:20.433Z,92.80
2023-02-25T01:10:48.284Z,92.70
2023-02-25T01:13:16.133Z,92.40
2023-02-25T01:15:42.832Z,92.20
2023-02-25T01:18:09.490Z,92.40
2023-02-25T01:20:40.462Z,92.10
2023-02-25T01:23:07.247Z,92.00
2023-02-25T01:25:34.045Z,92.10
2023-02-25T01:28:00.843Z,91.30
2023-02-25T01:30:27.620Z,91.00
2023-02-25T01:32:54.439Z,91.50
2023-02-25T01:35:21.226Z,91.70
2023-02-25T01:37:49.759Z,91.90
2023-02-25T01:40:17.242Z,91.80
2023-02-25T01:42:46.022Z,91.80
2023-02-25T01:45:22.096Z,91.80
2023-02-25T01:47:59.880Z,91.60
2023-02-25T01:50:32.966Z,91.00
2023-02-25T01:53:02.530Z,90.80
2023-02-25T01:55:29.419Z,90.80
2023-02-25T01:57:59.447Z,90.70
2023-02-25T02:00:28.389Z,90.40
2023-02-25T02:02:57.361Z,90.30
2023-02-25T02:05:37.293Z,90.20
2023-02-25T02:08:05.564Z,90.90
2023-02-25T02:10:32.218Z,90.80
2023-02-25T02:12:58.909Z,90.20
2023-02-25T02:15:25.669Z,89.90
2023-02-25T02:18:00.193Z,89.70
2023-02-25T02:20:33.096Z,89.00
2023-02-25T02:23:23.457Z,89.20
2023-02-25T02:26:12.234Z,89.40
2023-02-25T02:29:16.653Z,88.70
2023-02-25T02:32:03.260Z,88.60
2023-02-25T02:34:52.616Z,88.90
2023-02-25T02:37:49.957Z,88.40
2023-02-25T02:40:41.119Z,88.30
2023-02-25T02:43:23.855Z,88.30
2023-02-25T02:46:10.056Z,88.70
2023-02-25T02:48:49.076Z,89.10
2023-02-25T02:51:37.877Z,89.70
2023-02-25T02:54:06.624Z,89.60
2023-02-25T02:56:36.656Z,89.40
2023-02-25T02:59:16.752Z,89.50
2023-02-25T03:01:52.442Z,90.10
2023-02-25T03:04:25.123Z,90.30
2023-02-25T03:06:57.864Z,90.20
2023-02-25T03:09:31.058Z,90.50
2023-02-25T03:11:57.945Z,91.00
2023-02-25T03:14:24.795Z,91.60
2023-02-25T03:16:59.034Z,91.50
2023-02-25T03:19:42.367Z,91.40
2023-02-25T03:22:14.302Z,91.50
2023-02-25T03:24:59.206Z,91.80
2023-02-25T03:27:29.528Z,91.80
2023-02-25T03:30:31.855Z,91.90
2023-02-25T03:33:10.458Z,92.00
2023-02-25T03:35:40.468Z,91.60
2023-02-25T03:38:11.715Z,91.50
2023-02-25T03:40:42.712Z,91.30
2023-02-25T03:43:24.427Z,91.60
2023-02-25T03:45:51.548Z,91.40
2023-02-25T03:48:19.194Z,91.70
2023-02-25T03:50:59.449Z,91.40
2023-02-25T03:53:32.312Z,91.20
2023-02-25T03:56:09.113Z,91.40
2023-02-25T03:58:39.047Z,91.40
2023-02-25T04:01:10.989Z,91.60
2023-02-25T04:03:37.927Z,91.50
2023-02-25T04:06:05.694Z,91.40
2023-02-25T04:08:32.957Z,90.80
2023-02-25T04:10:59.908Z,91.20
2023-02-25T04:13:26.981Z,91.30
2023-02-25T04:15:53.698Z,91.20
2023-02-25T04:18:32.517Z,91.10
2023-02-25T04:21:04.467Z,90.60
2023-02-25T04:23:31.153Z,90.70
2023-02-25T04:25:57.820Z,90.50
2023-02-25T04:28:24.461Z,90.50
2023-02-25T04:30:51.315Z,90.50
2023-02-25T04:33:18.138Z,90.10
2023-02-25T04:35:44.801Z,90.30
2023-02-25T04:38:11.437Z,90.00
2023-02-25T04:40:38.138Z,89.80
2023-02-25T04:43:04.805Z,90.20
2023-02-25T04:45:31.968Z,90.20
2023-02-25T04:47:58.668Z,90.10
2023-02-25T04:50:26.097Z,90.40
2023-02-25T04:52:52.853Z,90.90
2023-02-25T04:55:19.951Z,91.00
2023-02-25T04:57:46.896Z,90.90
2023-02-25T05:00:20.158Z,90.60
2023-02-25T05:02:48.148Z,90.30
2023-02-25T05:05:15.860Z,90.70
2023-02-25T05:07:43.423Z,90.70
2023-02-25T05:10:12.094Z,90.90
2023-02-25T05:12:38.766Z,90.60
2023-02-25T05:15:08.270Z,90.50
2023-02-25T05:17:36.093Z,90.30
2023-02-25T05:20:06.858Z,90.30
2023-02-25T05:22:33.918Z,90.70
2023-02-25T05:25:01.000Z,90.40
2023-02-25T05:27:27.825Z,90.30
2023-02-25T05:29:54.670Z,90.30
2023-02-25T05:32:22.042Z,90.30
2023-02-25T05:34:48.874Z,90.60
2023-02-25T05:37:15.667Z,90.60
2023-02-25T05:39:42.679Z,90.60
2023-02-25T05:42:09.398Z,91.00
2023-02-25T05:44:37.111Z,91.30
2023-02-25T05:47:03.874Z,91.30
2023-02-25T05:49:30.584Z,91.20
2023-02-25T05:51:57.246Z,90.50
2023-02-25T05:54:23.899Z,90.70
2023-02-25T05:56:51.732Z,90.00
2023-02-25T05:59:18.762Z,89.60
2023-02-25T06:01:45.508Z,89.70
2023-02-25T06:04:12.166Z,89.30
2023-02-25T06:06:38.811Z,89.30
2023-02-25T06:09:10.213Z,88.90
2023-02-25T06:11:37.338Z,89.20
2023-02-25T06:14:04.034Z,89.30
2023-02-25T06:16:32.081Z,88.90
2023-02-25T06:19:02.249Z,88.50
2023-02-25T06:21:29.759Z,88.80
2023-02-25T06:23:56.496Z,88.70
2023-02-25T06:26:23.611Z,88.70
2023-02-25T06:28:50.575Z,89.00
2023-02-25T06:31:18.921Z,88.70
2023-02-25T06:33:46.712Z,89.00
2023-02-25T06:36:13.799Z,89.20
2023-02-25T06:38:40.741Z,89.00
2023-02-25T06:41:16.520Z,88.70
2023-02-25T06:43:44.014Z,88.30
2023-02-25T06:46:13.282Z,88.50
2023-02-25T06:48:40.840Z,88.30
2023-02-25T06:51:09.512Z,88.20
2023-02-25T06:53:37.583Z,88.20
2023-02-25T06:56:04.873Z,88.30
2023-02-25T06:58:31.576Z,88.40
2023-02-25T07:00:59.642Z,88.30
2023-02-25T07:03:26.878Z,88.20
2023-02-25T07:05:53.578Z,87.90
2023-02-25T07:08:20.286Z,87.70
2023-02-25T07:10:46.931Z,88.20
2023-02-25T07:13:13.878Z,88.30
2023-02-25T07:15:40.734Z,88.40
2023-02-25T07:18:07.523Z,88.40
2023-02-25T07:20:34.311Z,88.40
2023-02-25T07:23:04.509Z,88.10
2023-02-25T07:25:31.338Z,88.30
2023-02-25T07:27:58.080Z,88.10
2023-02-25T07:30:24.815Z,88.70
2023-02-25T07:32:51.552Z,88.40
2023-02-25T07:35:18.273Z,88.40
2023-02-25T07:37:44.991Z,89.20
2023-02-25T07:40:17.038Z,89.50
2023-02-25T07:42:44.052Z,89.50
2023-02-25T07:45:12.180Z,89.20
2023-02-25T07:47:39.143Z,89.30
2023-02-25T07:50:07.452Z,88.90
2023-02-25T07:52:34.120Z,88.50
2023-02-25T07:55:00.751Z,88.60
2023-02-25T07:57:28.949Z,88.90
2023-02-25T07:59:55.699Z,89.30
2023-02-25T08:02:22.548Z,89.50
2023-02-25T08:04:49.517Z,89.50
2023-02-25T08:07:16.554Z,89.10
2023-02-25T08:09:43.631Z,88.30
2023-02-25T08:12:11.117Z,88.20
2023-02-25T08:14:38.552Z,88.00
2023-02-25T08:17:05.338Z,88.10
2023-02-25T08:19:32.026Z,88.30
2023-02-25T08:21:58.722Z,87.90
2023-02-25T08:24:26.865Z,88.00
2023-02-25T08:26:54.724Z,87.90
2023-02-25T08:29:21.876Z,87.30
2023-02-25T08:31:53.349Z,87.30
2023-02-25T08:34:26.198Z,87.50
2023-02-25T08:36:53.265Z,87.20
2023-02-25T08:39:20.380Z,86.40
2023-02-25T08:41:47.054Z,86.20
2023-02-25T08:44:13.697Z,86.40
2023-02-25T08:46:41.050Z,86.80
2023-02-25T08:49:07.859Z,86.90
2023-02-25T08:51:36.112Z,87.70
2023-02-25T08:54:06.534Z,87.00
2023-02-25T08:56:35.138Z,86.60
2023-02-25T08:59:03.994Z,86.60
2023-02-25T09:01:44.360Z,86.50
2023-02-25T09:04:23.476Z,86.30
2023-02-25T09:06:52.608Z,86.00
2023-02-25T09:09:20.614Z,85.30
2023-02-25T09:11:48.099Z,85.40
2023-02-25T09:14:15.534Z,86.20
2023-02-25T09:16:42.315Z,86.80
2023-02-25T09:19:10.683Z,86.70
2023-02-25T09:21:37.523Z,86.70
2023-02-25T09:24:04.369Z,86.40
2023-02-25T09:26:31.088Z,86.10
2023-02-25T09:29:01.344Z,86.00
2023-02-25T09:31:28.420Z,86.40
2023-02-25T09:33:55.226Z,86.60
2023-02-25T09:36:22.351Z,86.40
2023-02-25T09:38:50.751Z,85.90
2023-02-25T09:41:25.051Z,85.90
2023-02-25T09:44:15.706Z,86.10
2023-02-25T09:46:56.098Z,86.10
2023-02-25T09:49:31.514Z,86.20
2023-02-25T09:52:16.776Z,86.00
2023-02-25T09:54:47.495Z,86.30
2023-02-25T09:57:19.257Z,86.90
2023-02-25T09:59:47.369Z,86.80
2023-02-25T10:02:21.275Z,86.60
2023-02-25T10:05:06.905Z,86.70
2023-02-25T10:07:47.441Z,86.90
2023-02-25T10:10:49.724Z,87.80
2023-02-25T10:13:38.646Z,88.70
2023-02-25T10:16:33.727Z,88.60
2023-02-25T10:19:19.445Z,88.50
2023-02-25T10:22:06.298Z,88.60
2023-02-25T10:24:51.879Z,89.10
2023-02-25T10:27:33.184Z,89.20
2023-02-25T10:30:12.447Z,88.90
2023-02-25T10:32:41.530Z,88.90
2023-02-25T10:35:28.829Z,88.50
2023-02-25T10:37:55.911Z,88.60
2023-02-25T10:40:29.311Z,88.60
2023-02-25T10:43:01.944Z,87.90
2023-02-25T10:45:41.130Z,87.90
2023-02-25T10:48:20.414Z,88.50
2023-02-25T10:51:06.413Z,88.40
2023-02-25T10:53:34.261Z,89.10
2023-02-25T10:56:02.894Z,89.30
2023-02-25T10:58:38.108Z,88.90
2023-02-25T11:01:07.638Z,88.40
2023-02-25T11:03:41.849Z,88.30
2023-02-25T11:06:14.986Z,88.60
2023-02-25T11:08:44.686Z,88.40
2023-02-25T11:11:21.841Z,87.80
2023-02-25T11:14:06.925Z,86.30
2023-02-25T11:16:39.277Z,86.40
2023-02-25T11:19:22.772Z,86.70
2023-02-25T11:21:49.868Z,86.50
2023-02-25T11:24:22.611Z,86.30
2023-02-25T11:26:51.906Z,86.20
2023-02-25T11:29:30.259Z,86.80
2023-02-25T11:32:09.822Z,86.80
2023-02-25T11:34:45.934Z,87.50
2023-02-25T11:37:36.663Z,87.10
2023-02-25T11:40:19.392Z,87.50
2023-02-25T11:43:19.650Z,88.10
2023-02-25T11:45:53.818Z,87.60
2023-02-25T11:48:47.539Z,87.60
2023-02-25T11:51:24.257Z,87.50
2023-02-25T11:53:57.935Z,88.20
2023-02-25T11:56:48.468Z,88.10
2023-02-25T11:59:37.750Z,86.90
2023-02-25T12:02:38.214Z,85.80
2023-02-25T12:05:31.959Z,85.80
2023-02-25T12:08:17.519Z,86.50
2023-02-25T12:11:06.208Z,85.80
2023-02-25T12:13:48.652Z,85.10
2023-02-25T12:16:44.508Z,85.00
2023-02-25T12:19:32.537Z,84.80
2023-02-25T12:22:20.725Z,84.90
2023-02-25T12:25:16.373Z,84.90
2023-02-25T12:27:47.222Z,82.80
2023-02-25T12:31:18.484Z,79.40
2023-02-25T12:33:48.294Z,77.00
2023-02-25T12:36:34.189Z,74.80
2023-02-25T12:39:45.559Z,73.30
2023-02-25T12:42:30.837Z,71.00
2023-02-25T12:45:18.252Z,69.10
2023-02-25T12:47:54.462Z,68.20
2023-02-25T12:50:34.341Z,69.00
2023-02-25T12:53:19.901Z,69.00
2023-02-25T12:56:20.108Z,68.10
2023-02-25T12:59:30.144Z,68.30
2023-02-25T13:02:33.850Z,67.00
2023-02-25T13:05:22.761Z,66.40
2023-02-25T13:08:20.539Z,67.50
2023-02-25T13:11:25.152Z,68.40
2023-02-25T13:14:23.438Z,68.70
2023-02-25T13:17:12.337Z,70.20
2023-02-25T13:20:16.720Z,69.40
2023-02-25T13:23:01.938Z,70.40
2023-02-25T13:25:51.804Z,70.10
2023-02-25T13:28:43.213Z,72.00
2023-02-25T13:31:46.908Z,71.20
2023-02-25T13:34:22.514Z,72.30
2023-02-25T13:37:10.202Z,73.20
2023-02-25T13:39:52.255Z,74.10
2023-02-25T13:42:27.425Z,73.10
2023-02-25T13:45:31.253Z,72.20
2023-02-25T13:48:30.136Z,72.50
2023-02-25T13:51:28.532Z,72.20
2023-02-25T13:54:23.106Z,73.10
2023-02-25T13:57:17.831Z,73.60
2023-02-25T14:00:22.292Z,73.20
2023-02-25T14:03:17.100Z,73.50
2023-02-25T14:05:49.687Z,74.70
2023-02-25T14:08:57.399Z,75.30
2023-02-25T14:11:51.318Z,75.80
2023-02-25T14:14:48.187Z,76.50
2023-02-25T14:17:32.618Z,77.30
2023-02-25T14:20:25.544Z,77.40
2023-02-25T14:23:04.101Z,77.60
2023-02-25T14:25:55.688Z,77.70
2023-02-25T14:28:38.750Z,76.90
2023-02-25T14:31:24.766Z,79.10
2023-02-25T14:34:31.791Z,83.70
2023-02-25T14:37:07.541Z,86.80
2023-02-25T14:39:37.237Z,89.70
2023-02-25T14:42:46.116Z,91.90
2023-02-25T14:45:12.712Z,94.50
2023-02-25T14:48:06.534Z,95.40
2023-02-25T14:50:48.667Z,96.30
2023-02-25T14:53:16.390Z,95.70
2023-02-25T14:56:18.344Z,95.80
2023-02-25T14:59:06.543Z,94.70
2023-02-25T15:02:09.471Z,95.40
2023-02-25T15:05:01.400Z,94.20
2023-02-25T15:08:06.261Z,92.90
2023-02-25T15:10:50.942Z,93.00
2023-02-25T15:13:32.754Z,93.40
2023-02-25T15:16:34.069Z,93.40
2023-02-25T15:19:26.919Z,93.50
2023-02-25T15:22:13.542Z,92.90
2023-02-25T15:24:43.746Z,92.70
2023-02-25T15:27:36.392Z,91.30
2023-02-25T15:30:15.327Z,91.00
2023-02-25T15:33:13.054Z,91.20
2023-02-25T15:35:40.527Z,91.20
2023-02-25T15:38:13.499Z,92.10
2023-02-25T15:40:48.831Z,91.90
2023-02-25T15:43:16.140Z,92.00
2023-02-25T15:46:12.475Z,91.60
2023-02-25T15:48:41.836Z,91.20
2023-02-25T15:51:14.152Z,91.00
2023-02-25T15:53:48.291Z,90.70
2023-02-25T15:56:16.564Z,90.70
2023-02-25T15:58:51.263Z,91.40
2023-02-25T16:01:30.847Z,91.00
2023-02-25T16:03:57.808Z,90.70
2023-02-25T16:06:43.904Z,90.80
2023-02-25T16:09:18.496Z,91.30
2023-02-25T16:11:49.343Z,92.30
2023-02-25T16:14:23.020Z,92.10
2023-02-25T16:17:03.313Z,93.90
2023-02-25T16:19:35.834Z,95.20
2023-02-25T16:22:22.411Z,96.30
2023-02-25T16:24:52.171Z,96.70
2023-02-25T16:27:44.917Z,97.30
2023-02-25T16:30:29.920Z,97.50
2023-02-25T16:33:15.579Z,97.00
2023-02-25T16:35:53.436Z,96.50
2023-02-25T16:38:45.664Z,96.20
2023-02-25T16:41:14.398Z,96.30
2023-02-25T16:43:45.905Z,95.80
2023-02-25T16:46:27.745Z,96.20
2023-02-25T16:49:00.369Z,95.30
2023-02-25T16:51:41.603Z,95.70
2023-02-25T16:54:19.611Z,95.40
2023-02-25T16:56:50.416Z,94.50
2023-02-25T16:59:21.512Z,94.70
2023-02-25T17:02:05.976Z,94.10
2023-02-25T17:04:34.710Z,92.80
2023-02-25T17:07:25.285Z,92.80
2023-02-25T17:09:56.040Z,93.80
2023-02-25T17:12:41.700Z,94.40
2023-02-25T17:15:16.199Z,94.20
2023-02-25T17:17:44.476Z,95.20
2023-02-25T17:20:27.593Z,95.60
2023-02-25T17:22:56.474Z,95.70
2023-02-25T17:25:37.238Z,95.60
2023-02-25T17:28:06.091Z,96.10
2023-02-25T17:30:34.296Z,96.10
2023-02-25T17:33:01.056Z,97.00
2023-02-25T17:35:28.431Z,95.10
2023-02-25T17:37:57.136Z,96.20
2023-02-25T17:40:29.218Z,95.90
2023-02-25T17:43:20.397Z,95.90
2023-02-25T17:45:54.320Z,96.00
2023-02-25T17:48:26.511Z,95.30
2023-02-25T17:51:13.740Z,96.00
2023-02-25T17:53:55.585Z,96.50
2023-02-25T17:56:27.392Z,97.00
2023-02-25T17:59:19.718Z,96.60
2023-02-25T18:01:58.523Z,97.00
2023-02-25T18:04:41.143Z,97.40
2023-02-25T18:07:29.485Z,97.70
2023-02-25T18:10:00.579Z,97.40
2023-02-25T18:12:36.344Z,96.80
2023-02-25T18:15:15.649Z,97.30
2023-02-25T18:17:48.906Z,97.50
2023-02-25T18:20:42.841Z,97.90
2023-02-25T18:23:25.256Z,97.20
2023-02-25T18:26:16.555Z,97.70
2023-02-25T18:28:44.592Z,97.90
2023-02-25T18:31:12.371Z,97.60
2023-02-25T18:33:39.155Z,97.30
2023-02-25T18:36:08.338Z,97.70
2023-02-25T18:38:41.908Z,97.70
2023-02-25T18:41:08.850Z,97.50
2023-02-25T18:43:39.956Z,98.30
2023-02-25T18:46:06.799Z,98.30
2023-02-25T18:48:35.244Z,98.30
2023-02-25T18:51:03.175Z,97.50
2023-02-25T18:53:29.850Z,96.50
2023-02-25T18:55:57.409Z,95.40
2023-02-25T18:58:24.857Z,94.50
2023-02-25T19:00:59.254Z,93.40
2023-02-25T19:03:37.631Z,92.90
2023-02-25T19:06:05.011Z,90.60
2023-02-25T19:08:31.688Z,92.00
2023-02-25T19:11:00.865Z,91.90
2023-02-25T19:13:36.009Z,90.40
2023-02-25T19:16:11.721Z,90.00
2023-02-25T19:18:42.848Z,89.80
2023-02-25T19:21:20.753Z,90.00
2023-02-25T19:23:51.745Z,88.40
2023-02-25T19:26:19.755Z,88.70
2023-02-25T19:28:46.570Z,89.10
2023-02-25T19:31:14.902Z,88.00
2023-02-25T19:33:42.909Z,88.40
2023-02-25T19:36:14.995Z,88.10
2023-02-25T19:38:41.685Z,87.60
2023-02-25T19:41:14.078Z,87.90
2023-02-25T19:43:40.728Z,88.60
2023-02-25T19:46:08.185Z,88.30
2023-02-25T19:48:34.847Z,88.00
2023-02-25T19:51:09.453Z,88.00
2023-02-25T19:53:36.977Z,87.60
2023-02-25T19:56:05.312Z,88.70
2023-02-25T19:58:31.953Z,88.60
2023-02-25T20:01:08.885Z,88.50
2023-02-25T20:03:36.050Z,89.20
2023-02-25T20:06:13.396Z,89.20
2023-02-25T20:08:41.200Z,88.40
2023-02-25T20:11:09.723Z,89.60
2023-02-25T20:13:38.221Z,89.50
2023-02-25T20:16:06.105Z,89.30
2023-02-25T20:18:32.776Z,89.40
2023-02-25T20:20:59.781Z,89.80
2023-02-25T20:23:33.559Z,89.00
2023-02-25T20:26:09.576Z,89.30
2023-02-25T20:28:36.898Z,88.60
2023-02-25T20:31:04.657Z,89.00
2023-02-25T20:33:34.852Z,89.80
2023-02-25T20:36:04.331Z,90.60
2023-02-25T20:38:37.549Z,89.80
2023-02-25T20:41:05.435Z,88.50
2023-02-25T20:43:32.237Z,89.20
2023-02-25T20:46:00.329Z,89.70
2023-02-25T20:48:30.844Z,88.60
2023-02-25T20:50:59.070Z,88.60
2023-02-25T20:53:25.847Z,89.00
2023-02-25T20:55:59.492Z,89.10
2023-02-25T20:58:26.700Z,88.70
2023-02-25T21:00:53.412Z,88.60
2023-02-25T21:03:20.130Z,89.30
2023-02-25T21:05:50.488Z,88.70
2023-02-25T21:08:17.416Z,89.60
2023-02-25T21:10:44.095Z,89.30
2023-02-25T21:13:11.657Z,89.60
2023-02-25T21:15:38.487Z,89.20
2023-02-25T21:18:05.706Z,89.40
2023-02-25T21:20:32.468Z,89.30
2023-02-25T21:22:59.215Z,89.30
2023-02-25T21:25:27.228Z,87.90
2023-02-25T21:27:54.032Z,88.10
2023-02-25T21:30:21.373Z,88.40
2023-02-25T21:32:48.072Z,88.30
2023-02-25T21:35:18.192Z,88.90
2023-02-25T21:37:45.042Z,90.80
2023-02-25T21:40:12.240Z,91.70
2023-02-25T21:42:38.856Z,92.00
2023-02-25T21:45:09.904Z,92.40
2023-02-25T21:47:36.544Z,91.30
2023-02-25T21:50:03.803Z,91.90
2023-02-25T21:52:31.016Z,92.60
2023-02-25T21:54:57.928Z,93.00
2023-02-25T21:57:25.018Z,93.70
2023-02-25T21:59:53.627Z,93.90
2023-02-25T22:02:20.296Z,94.20
2023-02-25T22:04:47.692Z,94.20
2023-02-25T22:07:14.396Z,94.50
2023-02-25T22:09:41.022Z,94.50
2023-02-25T22:12:07.620Z,94.50
2023-02-25T22:14:34.663Z,94.60
2023-02-25T22:17:02.127Z,94.80
2023-02-25T22:19:28.892Z,94.50
2023-02-25T22:21:55.555Z,94.20
2023-02-25T22:24:22.214Z,94.40
2023-02-25T22:26:48.871Z,94.70
2023-02-25T22:29:15.537Z,95.00
2023-02-25T22:31:42.349Z,95.00
2023-02-25T22:34:09.983Z,94.70
2023-02-25T22:36:38.213Z,94.60
2023-02-25T22:39:06.858Z,94.40
2023-02-25T22:41:33.641Z,94.30
2023-02-25T22:44:01.347Z,94.60
2023-02-25T22:46:31.142Z,94.60
2023-02-25T22:48:58.453Z,94.80
2023-02-25T22:51:28.106Z,94.90
2023-02-25T22:53:55.715Z,94.60
2023-02-25T22:56:23.565Z,94.70
2023-02-25T22:58:51.094Z,94.60
2023-02-25T23:01:19.903Z,94.50
2023-02-25T23:03:47.839Z,94.80
2023-02-25T23:06:16.393Z,94.60
2023-02-25T23:08:44.267Z,94.60
2023-02-25T23:11:17.720Z,94.90
2023-02-25T23:13:47.997Z,94.90
2023-02-25T23:16:23.757Z,94.60
2023-02-25T23:18:51.987Z,94.90
2023-02-25T23:21:19.818Z,95.00
2023-02-25T23:23:48.476Z,95.00
2023-02-25T23:26:18.443Z,95.00
2023-02-25T23:28:45.898Z,95.00
2023-02-25T23:31:30.251Z,95.60
2023-02-25T23:34:08.772Z,95.30
2023-02-25T23:36:37.093Z,94.70
2023-02-25T23:39:05.364Z,94.60
2023-02-25T23:41:34.353Z,95.30
2023-02-25T23:44:01.656Z,94.50
2023-02-25T23:46:30.136Z,92.80
2023-02-25T23:49:02.641Z,91.60
2023-02-25T23:51:30.092Z,91.50
2023-02-25T23:53:58.928Z,91.10
2023-02-25T23:56:27.270Z,90.90
2023-02-25T23:58:55.008Z,90.80
